sensor_id;sensor_type;location;lat;lon;timestamp;temperature;humidity
16879;DHT22;8556;52.218;9.884;2023-09-07T00:00:02;15.70;99.90
16879;DHT22;8556;52.218;9.884;2023-09-07T00:02:31;15.50;99.90
16879;DHT22;8556;52.218;9.884;2023-09-07T00:04:58;15.30;99.90
16879;DHT22;8556;52.218;9.884;2023-09-07T00:07:25;15.20;99.90
16879;DHT22;8556;52.218;9.884;2023-09-07T00:09:51;15.10;99.90
16879;DHT22;8556;52.218;9.884;2023-09-07T00:12:19;15.00;99.90
16879;DHT22;8556;52.218;9.884;2023-09-07T00:14:46;14.90;99.90
16879;DHT22;8556;52.218;9.884;2023-09-07T00:17:13;15.00;99.90
16879;DHT22;8556;52.218;9.884;2023-09-07T00:19:40;15.10;99.90
16879;DHT22;8556;52.218;9.884;2023-09-07T00:22:07;14.80;99.90
16879;DHT22;8556;52.218;9.884;2023-09-07T00:24:35;15.00;99.90
16879;DHT22;8556;52.218;9.884;2023-09-07T00:27:01;14.80;99.90
16879;DHT22;8556;52.218;9.884;2023-09-07T00:29:32;14.70;99.90
16879;DHT22;8556;52.218;9.884;2023-09-07T00:31:59;14.80;99.90
16879;DHT22;8556;52.218;9.884;2023-09-07T00:34:26;14.90;99.90
16879;DHT22;8556;52.218;9.884;2023-09-07T00:36:53;14.90;99.90
16879;DHT22;8556;52.218;9.884;2023-09-07T00:39:19;15.00;99.90
16879;DHT22;8556;52.218;9.884;2023-09-07T00:41:46;15.00;99.90
16879;DHT22;8556;52.218;9.884;2023-09-07T00:44:13;15.00;99.90
16879;DHT22;8556;52.218;9.884;2023-09-07T00:46:41;14.70;99.90
16879;DHT22;8556;52.218;9.884;2023-09-07T00:49:10;14.60;99.90
16879;DHT22;8556;52.218;9.884;2023-09-07T00:51:37;14.70;99.90
16879;DHT22;8556;52.218;9.884;2023-09-07T00:54:04;14.90;99.90
16879;DHT22;8556;52.218;9.884;2023-09-07T00:56:31;14.90;99.90
16879;DHT22;8556;52.218;9.884;2023-09-07T00:58:58;14.90;99.90
16879;DHT22;8556;52.218;9.884;2023-09-07T01:01:25;14.60;99.90
16879;DHT22;8556;52.218;9.884;2023-09-07T01:03:54;14.60;99.90
16879;DHT22;8556;52.218;9.884;2023-09-07T01:06:27;14.40;99.90
16879;DHT22;8556;52.218;9.884;2023-09-07T01:08:57;14.30;99.90
16879;DHT22;8556;52.218;9.884;2023-09-07T01:11:24;14.30;99.90
16879;DHT22;8556;52.218;9.884;2023-09-07T01:13:52;14.10;99.90
16879;DHT22;8556;52.218;9.884;2023-09-07T01:16:19;14.00;99.90
16879;DHT22;8556;52.218;9.884;2023-09-07T01:18:47;14.10;99.90
16879;DHT22;8556;52.218;9.884;2023-09-07T01:21:16;14.10;99.90
16879;DHT22;8556;52.218;9.884;2023-09-07T01:23:46;14.00;99.90
16879;DHT22;8556;52.218;9.884;2023-09-07T01:26:14;14.20;99.90
16879;DHT22;8556;52.218;9.884;2023-09-07T01:28:41;14.30;99.90
16879;DHT22;8556;52.218;9.884;2023-09-07T01:31:08;14.30;99.90
16879;DHT22;8556;52.218;9.884;2023-09-07T01:33:35;14.20;99.90
16879;DHT22;8556;52.218;9.884;2023-09-07T01:36:03;14.20;99.90
16879;DHT22;8556;52.218;9.884;2023-09-07T01:38:30;14.30;99.90
16879;DHT22;8556;52.218;9.884;2023-09-07T01:40:58;14.30;99.90
16879;DHT22;8556;52.218;9.884;2023-09-07T01:43:25;14.20;99.90
16879;DHT22;8556;52.218;9.884;2023-09-07T01:45:51;13.80;99.90
16879;DHT22;8556;52.218;9.884;2023-09-07T01:48:18;13.80;99.90
16879;DHT22;8556;52.218;9.884;2023-09-07T01:50:45;13.80;99.90
16879;DHT22;8556;52.218;9.884;2023-09-07T01:53:12;13.80;99.90
16879;DHT22;8556;52.218;9.884;2023-09-07T01:55:38;14.00;99.90
16879;DHT22;8556;52.218;9.884;2023-09-07T01:58:06;14.00;99.90
16879;DHT22;8556;52.218;9.884;2023-09-07T02:03:14;13.70;99.90
16879;DHT22;8556;52.218;9.884;2023-09-07T02:05:46;13.60;99.90
16879;DHT22;8556;52.218;9.884;2023-09-07T02:08:18;13.40;99.90
16879;DHT22;8556;52.218;9.884;2023-09-07T02:10:45;13.20;99.90
16879;DHT22;8556;52.218;9.884;2023-09-07T02:13:13;13.30;99.90
16879;DHT22;8556;52.218;9.884;2023-09-07T02:15:43;13.50;99.90
16879;DHT22;8556;52.218;9.884;2023-09-07T02:18:10;13.50;99.90
16879;DHT22;8556;52.218;9.884;2023-09-07T02:20:37;13.50;99.90
16879;DHT22;8556;52.218;9.884;2023-09-07T02:23:04;13.50;99.90
16879;DHT22;8556;52.218;9.884;2023-09-07T02:25:30;13.60;99.90
16879;DHT22;8556;52.218;9.884;2023-09-07T02:27:57;13.60;99.90
16879;DHT22;8556;52.218;9.884;2023-09-07T02:30:25;13.60;99.90
16879;DHT22;8556;52.218;9.884;2023-09-07T02:32:52;13.50;99.90
16879;DHT22;8556;52.218;9.884;2023-09-07T02:35:19;13.60;99.90
16879;DHT22;8556;52.218;9.884;2023-09-07T02:37:46;13.70;99.90
16879;DHT22;8556;52.218;9.884;2023-09-07T02:40:13;13.70;99.90
16879;DHT22;8556;52.218;9.884;2023-09-07T02:42:41;13.70;99.90
16879;DHT22;8556;52.218;9.884;2023-09-07T02:45:10;13.70;99.90
16879;DHT22;8556;52.218;9.884;2023-09-07T02:47:38;13.70;99.90
16879;DHT22;8556;52.218;9.884;2023-09-07T02:50:06;13.60;99.90
16879;DHT22;8556;52.218;9.884;2023-09-07T02:52:33;13.50;99.90
16879;DHT22;8556;52.218;9.884;2023-09-07T02:55:00;13.60;99.90
16879;DHT22;8556;52.218;9.884;2023-09-07T02:57:27;13.60;99.90
16879;DHT22;8556;52.218;9.884;2023-09-07T02:59:54;13.50;99.90
16879;DHT22;8556;52.218;9.884;2023-09-07T03:02:20;13.50;99.90
16879;DHT22;8556;52.218;9.884;2023-09-07T03:04:53;13.50;99.90
16879;DHT22;8556;52.218;9.884;2023-09-07T03:07:20;13.60;99.90
16879;DHT22;8556;52.218;9.884;2023-09-07T03:09:47;13.60;99.90
16879;DHT22;8556;52.218;9.884;2023-09-07T03:12:14;13.70;99.90
16879;DHT22;8556;52.218;9.884;2023-09-07T03:14:43;13.70;99.90
16879;DHT22;8556;52.218;9.884;2023-09-07T03:17:10;13.60;99.90
16879;DHT22;8556;52.218;9.884;2023-09-07T03:19:37;13.50;99.90
16879;DHT22;8556;52.218;9.884;2023-09-07T03:22:05;13.60;99.90
16879;DHT22;8556;52.218;9.884;2023-09-07T03:24:32;13.60;99.90
16879;DHT22;8556;52.218;9.884;2023-09-07T03:26:59;13.50;99.90
16879;DHT22;8556;52.218;9.884;2023-09-07T03:29:26;13.40;99.90
16879;DHT22;8556;52.218;9.884;2023-09-07T03:31:52;13.40;99.90
16879;DHT22;8556;52.218;9.884;2023-09-07T03:34:19;13.30;99.90
16879;DHT22;8556;52.218;9.884;2023-09-07T03:36:46;13.20;99.90
16879;DHT22;8556;52.218;9.884;2023-09-07T03:39:14;13.30;99.90
16879;DHT22;8556;52.218;9.884;2023-09-07T03:41:43;13.50;99.90
16879;DHT22;8556;52.218;9.884;2023-09-07T03:44:10;13.50;99.90
16879;DHT22;8556;52.218;9.884;2023-09-07T03:46:36;13.50;99.90
16879;DHT22;8556;52.218;9.884;2023-09-07T03:49:03;13.50;99.90
16879;DHT22;8556;52.218;9.884;2023-09-07T03:51:31;13.50;99.90
16879;DHT22;8556;52.218;9.884;2023-09-07T03:53:58;13.40;99.90
16879;DHT22;8556;52.218;9.884;2023-09-07T03:56:26;13.30;99.90
16879;DHT22;8556;52.218;9.884;2023-09-07T03:58:53;13.20;99.90
16879;DHT22;8556;52.218;9.884;2023-09-07T04:01:20;13.00;99.90
16879;DHT22;8556;52.218;9.884;2023-09-07T04:03:46;13.10;99.90
16879;DHT22;8556;52.218;9.884;2023-09-07T04:06:13;13.10;99.90
16879;DHT22;8556;52.218;9.884;2023-09-07T04:08:40;13.00;99.90
16879;DHT22;8556;52.218;9.884;2023-09-07T04:11:07;13.10;99.90
16879;DHT22;8556;52.218;9.884;2023-09-07T04:13:35;13.00;99.90
16879;DHT22;8556;52.218;9.884;2023-09-07T04:16:02;13.10;99.90
16879;DHT22;8556;52.218;9.884;2023-09-07T04:18:29;13.10;99.90
16879;DHT22;8556;52.218;9.884;2023-09-07T04:21:04;13.10;99.90
16879;DHT22;8556;52.218;9.884;2023-09-07T04:23:31;13.10;99.90
16879;DHT22;8556;52.218;9.884;2023-09-07T04:26:05;13.20;99.90
16879;DHT22;8556;52.218;9.884;2023-09-07T04:28:32;13.30;99.90
16879;DHT22;8556;52.218;9.884;2023-09-07T04:31:01;13.40;99.90
16879;DHT22;8556;52.218;9.884;2023-09-07T04:33:30;13.40;99.90
16879;DHT22;8556;52.218;9.884;2023-09-07T04:35:57;13.40;99.90
16879;DHT22;8556;52.218;9.884;2023-09-07T04:38:25;13.40;99.90
16879;DHT22;8556;52.218;9.884;2023-09-07T04:40:51;13.40;99.90
16879;DHT22;8556;52.218;9.884;2023-09-07T04:43:18;13.00;99.90
16879;DHT22;8556;52.218;9.884;2023-09-07T04:45:46;12.30;99.90
16879;DHT22;8556;52.218;9.884;2023-09-07T04:48:14;12.10;99.90
16879;DHT22;8556;52.218;9.884;2023-09-07T04:50:41;12.40;99.90
16879;DHT22;8556;52.218;9.884;2023-09-07T04:53:08;12.50;99.90
16879;DHT22;8556;52.218;9.884;2023-09-07T04:55:37;12.60;99.90
16879;DHT22;8556;52.218;9.884;2023-09-07T04:58:05;12.80;99.90
16879;DHT22;8556;52.218;9.884;2023-09-07T05:00:32;12.70;99.90
16879;DHT22;8556;52.218;9.884;2023-09-07T05:02:59;12.70;99.90
16879;DHT22;8556;52.218;9.884;2023-09-07T05:05:27;12.70;99.90
16879;DHT22;8556;52.218;9.884;2023-09-07T05:07:54;12.70;99.90
16879;DHT22;8556;52.218;9.884;2023-09-07T05:10:21;13.00;99.90
16879;DHT22;8556;52.218;9.884;2023-09-07T05:12:48;13.00;99.90
16879;DHT22;8556;52.218;9.884;2023-09-07T05:15:15;13.00;99.90
16879;DHT22;8556;52.218;9.884;2023-09-07T05:17:43;12.90;99.90
16879;DHT22;8556;52.218;9.884;2023-09-07T05:20:10;12.90;99.90
16879;DHT22;8556;52.218;9.884;2023-09-07T05:22:39;13.10;99.90
16879;DHT22;8556;52.218;9.884;2023-09-07T05:25:07;13.50;99.90
16879;DHT22;8556;52.218;9.884;2023-09-07T05:27:34;13.60;99.90
16879;DHT22;8556;52.218;9.884;2023-09-07T05:30:01;13.50;99.90
16879;DHT22;8556;52.218;9.884;2023-09-07T05:32:28;13.50;99.90
16879;DHT22;8556;52.218;9.884;2023-09-07T05:34:55;13.50;99.90
16879;DHT22;8556;52.218;9.884;2023-09-07T05:37:21;13.60;99.90
16879;DHT22;8556;52.218;9.884;2023-09-07T05:39:50;13.60;99.90
16879;DHT22;8556;52.218;9.884;2023-09-07T05:42:17;13.70;99.90
16879;DHT22;8556;52.218;9.884;2023-09-07T05:44:45;13.70;99.90
16879;DHT22;8556;52.218;9.884;2023-09-07T05:47:12;13.80;99.90
16879;DHT22;8556;52.218;9.884;2023-09-07T05:49:39;14.00;99.90
16879;DHT22;8556;52.218;9.884;2023-09-07T05:52:06;14.30;99.90
16879;DHT22;8556;52.218;9.884;2023-09-07T05:54:33;14.30;99.90
16879;DHT22;8556;52.218;9.884;2023-09-07T05:57:03;14.40;99.90
16879;DHT22;8556;52.218;9.884;2023-09-07T05:59:30;14.40;99.90
16879;DHT22;8556;52.218;9.884;2023-09-07T06:01:57;14.50;99.90
16879;DHT22;8556;52.218;9.884;2023-09-07T06:04:24;14.60;99.90
16879;DHT22;8556;52.218;9.884;2023-09-07T06:06:50;14.80;99.90
16879;DHT22;8556;52.218;9.884;2023-09-07T06:09:17;14.90;99.90
16879;DHT22;8556;52.218;9.884;2023-09-07T06:11:44;14.90;99.90
16879;DHT22;8556;52.218;9.884;2023-09-07T06:14:12;15.10;99.90
16879;DHT22;8556;52.218;9.884;2023-09-07T06:16:39;15.40;99.90
16879;DHT22;8556;52.218;9.884;2023-09-07T06:19:06;15.70;99.90
16879;DHT22;8556;52.218;9.884;2023-09-07T06:21:33;16.00;99.90
16879;DHT22;8556;52.218;9.884;2023-09-07T06:24:00;16.00;99.90
16879;DHT22;8556;52.218;9.884;2023-09-07T06:26:26;16.10;99.90
16879;DHT22;8556;52.218;9.884;2023-09-07T06:28:53;16.10;99.90
16879;DHT22;8556;52.218;9.884;2023-09-07T06:31:27;16.10;99.90
16879;DHT22;8556;52.218;9.884;2023-09-07T06:33:54;16.30;99.90
16879;DHT22;8556;52.218;9.884;2023-09-07T06:36:21;16.40;99.90
16879;DHT22;8556;52.218;9.884;2023-09-07T06:38:48;16.40;99.90
16879;DHT22;8556;52.218;9.884;2023-09-07T06:41:15;16.40;99.90
16879;DHT22;8556;52.218;9.884;2023-09-07T06:43:42;16.40;99.90
16879;DHT22;8556;52.218;9.884;2023-09-07T06:46:09;16.60;99.90
16879;DHT22;8556;52.218;9.884;2023-09-07T06:48:37;16.50;99.90
16879;DHT22;8556;52.218;9.884;2023-09-07T06:51:04;16.70;99.90
16879;DHT22;8556;52.218;9.884;2023-09-07T06:53:32;16.90;99.90
16879;DHT22;8556;52.218;9.884;2023-09-07T06:55:59;17.00;99.90
16879;DHT22;8556;52.218;9.884;2023-09-07T06:58:26;17.30;99.90
16879;DHT22;8556;52.218;9.884;2023-09-07T07:00:56;17.40;99.90
16879;DHT22;8556;52.218;9.884;2023-09-07T07:03:26;17.80;99.90
16879;DHT22;8556;52.218;9.884;2023-09-07T07:05:54;17.80;99.90
16879;DHT22;8556;52.218;9.884;2023-09-07T07:08:21;17.60;99.90
16879;DHT22;8556;52.218;9.884;2023-09-07T07:10:48;17.70;99.90
16879;DHT22;8556;52.218;9.884;2023-09-07T07:13:15;17.70;99.90
16879;DHT22;8556;52.218;9.884;2023-09-07T07:15:42;17.70;99.90
16879;DHT22;8556;52.218;9.884;2023-09-07T07:18:09;17.80;99.90
16879;DHT22;8556;52.218;9.884;2023-09-07T07:20:37;17.80;99.90
16879;DHT22;8556;52.218;9.884;2023-09-07T07:23:05;17.90;99.90
16879;DHT22;8556;52.218;9.884;2023-09-07T07:25:32;18.00;99.90
16879;DHT22;8556;52.218;9.884;2023-09-07T07:27:59;18.10;99.90
16879;DHT22;8556;52.218;9.884;2023-09-07T07:30:27;18.20;99.90
16879;DHT22;8556;52.218;9.884;2023-09-07T07:32:54;18.40;99.90
16879;DHT22;8556;52.218;9.884;2023-09-07T07:35:21;18.40;99.90
16879;DHT22;8556;52.218;9.884;2023-09-07T07:37:49;18.50;99.90
16879;DHT22;8556;52.218;9.884;2023-09-07T07:40:17;18.50;99.90
16879;DHT22;8556;52.218;9.884;2023-09-07T07:42:46;18.70;99.90
16879;DHT22;8556;52.218;9.884;2023-09-07T07:45:14;18.80;99.90
16879;DHT22;8556;52.218;9.884;2023-09-07T07:47:45;19.10;99.90
16879;DHT22;8556;52.218;9.884;2023-09-07T07:50:12;19.10;99.90
16879;DHT22;8556;52.218;9.884;2023-09-07T07:52:39;19.40;99.90
16879;DHT22;8556;52.218;9.884;2023-09-07T07:55:06;19.40;99.90
16879;DHT22;8556;52.218;9.884;2023-09-07T07:57:34;19.50;99.90
16879;DHT22;8556;52.218;9.884;2023-09-07T08:00:02;19.50;99.90
16879;DHT22;8556;52.218;9.884;2023-09-07T08:02:30;19.70;99.90
16879;DHT22;8556;52.218;9.884;2023-09-07T08:04:57;20.00;99.90
16879;DHT22;8556;52.218;9.884;2023-09-07T08:07:24;20.20;99.90
16879;DHT22;8556;52.218;9.884;2023-09-07T08:09:52;20.20;99.90
16879;DHT22;8556;52.218;9.884;2023-09-07T08:12:19;20.30;99.90
16879;DHT22;8556;52.218;9.884;2023-09-07T08:14:47;20.50;99.90
16879;DHT22;8556;52.218;9.884;2023-09-07T08:17:14;20.60;99.90
16879;DHT22;8556;52.218;9.884;2023-09-07T08:19:40;20.60;99.90
16879;DHT22;8556;52.218;9.884;2023-09-07T08:22:09;20.60;99.90
16879;DHT22;8556;52.218;9.884;2023-09-07T08:24:35;20.90;99.90
16879;DHT22;8556;52.218;9.884;2023-09-07T08:27:03;20.90;99.90
16879;DHT22;8556;52.218;9.884;2023-09-07T08:29:32;20.90;99.90
16879;DHT22;8556;52.218;9.884;2023-09-07T08:32:01;21.00;99.90
16879;DHT22;8556;52.218;9.884;2023-09-07T08:34:29;21.30;99.90
16879;DHT22;8556;52.218;9.884;2023-09-07T08:36:57;21.30;99.90
16879;DHT22;8556;52.218;9.884;2023-09-07T08:39:24;21.50;99.90
16879;DHT22;8556;52.218;9.884;2023-09-07T08:41:51;21.70;99.90
16879;DHT22;8556;52.218;9.884;2023-09-07T08:44:18;21.70;99.90
16879;DHT22;8556;52.218;9.884;2023-09-07T08:46:49;21.90;99.90
16879;DHT22;8556;52.218;9.884;2023-09-07T08:49:17;22.00;99.90
16879;DHT22;8556;52.218;9.884;2023-09-07T08:51:45;22.10;99.90
16879;DHT22;8556;52.218;9.884;2023-09-07T08:54:12;22.10;99.90
16879;DHT22;8556;52.218;9.884;2023-09-07T08:56:39;22.20;99.90
16879;DHT22;8556;52.218;9.884;2023-09-07T08:59:06;22.30;99.90
16879;DHT22;8556;52.218;9.884;2023-09-07T09:01:33;22.40;99.90
16879;DHT22;8556;52.218;9.884;2023-09-07T09:04:00;22.40;99.90
16879;DHT22;8556;52.218;9.884;2023-09-07T09:06:28;22.60;99.90
16879;DHT22;8556;52.218;9.884;2023-09-07T09:08:56;22.80;99.90
16879;DHT22;8556;52.218;9.884;2023-09-07T09:11:24;23.00;99.90
16879;DHT22;8556;52.218;9.884;2023-09-07T09:13:52;23.10;99.90
16879;DHT22;8556;52.218;9.884;2023-09-07T09:16:20;23.40;99.90
16879;DHT22;8556;52.218;9.884;2023-09-07T09:18:48;23.50;99.90
16879;DHT22;8556;52.218;9.884;2023-09-07T09:21:16;24.10;99.90
16879;DHT22;8556;52.218;9.884;2023-09-07T09:23:44;24.40;99.90
16879;DHT22;8556;52.218;9.884;2023-09-07T09:26:11;24.60;99.90
16879;DHT22;8556;52.218;9.884;2023-09-07T09:28:39;24.80;99.90
16879;DHT22;8556;52.218;9.884;2023-09-07T09:31:06;25.10;99.90
16879;DHT22;8556;52.218;9.884;2023-09-07T09:33:37;25.20;99.90
16879;DHT22;8556;52.218;9.884;2023-09-07T09:36:06;25.40;99.90
16879;DHT22;8556;52.218;9.884;2023-09-07T09:38:33;25.50;99.90
16879;DHT22;8556;52.218;9.884;2023-09-07T09:41:01;25.70;99.90
16879;DHT22;8556;52.218;9.884;2023-09-07T09:43:29;25.80;99.90
16879;DHT22;8556;52.218;9.884;2023-09-07T09:45:56;26.00;99.90
16879;DHT22;8556;52.218;9.884;2023-09-07T09:48:23;26.10;99.90
16879;DHT22;8556;52.218;9.884;2023-09-07T09:50:51;26.40;99.90
16879;DHT22;8556;52.218;9.884;2023-09-07T09:53:18;26.60;99.90
16879;DHT22;8556;52.218;9.884;2023-09-07T09:55:46;26.40;99.90
16879;DHT22;8556;52.218;9.884;2023-09-07T09:58:16;26.50;99.90
16879;DHT22;8556;52.218;9.884;2023-09-07T10:00:43;26.60;99.90
16879;DHT22;8556;52.218;9.884;2023-09-07T10:03:13;26.60;99.90
16879;DHT22;8556;52.218;9.884;2023-09-07T10:05:44;26.90;99.90
16879;DHT22;8556;52.218;9.884;2023-09-07T10:08:12;26.80;99.90
16879;DHT22;8556;52.218;9.884;2023-09-07T10:10:42;26.70;99.90
16879;DHT22;8556;52.218;9.884;2023-09-07T10:13:09;27.10;99.90
16879;DHT22;8556;52.218;9.884;2023-09-07T10:15:37;26.90;99.90
16879;DHT22;8556;52.218;9.884;2023-09-07T10:18:05;27.20;99.90
16879;DHT22;8556;52.218;9.884;2023-09-07T10:20:50;27.40;99.90
16879;DHT22;8556;52.218;9.884;2023-09-07T10:23:17;27.40;99.90
16879;DHT22;8556;52.218;9.884;2023-09-07T10:25:47;27.40;99.90
16879;DHT22;8556;52.218;9.884;2023-09-07T10:28:19;27.70;99.90
16879;DHT22;8556;52.218;9.884;2023-09-07T10:30:58;27.60;99.90
16879;DHT22;8556;52.218;9.884;2023-09-07T10:33:24;27.40;99.90
16879;DHT22;8556;52.218;9.884;2023-09-07T10:35:51;27.70;99.90
16879;DHT22;8556;52.218;9.884;2023-09-07T10:38:18;27.60;99.90
16879;DHT22;8556;52.218;9.884;2023-09-07T10:40:45;27.80;99.90
16879;DHT22;8556;52.218;9.884;2023-09-07T10:43:12;27.80;99.90
16879;DHT22;8556;52.218;9.884;2023-09-07T10:45:39;27.80;99.90
16879;DHT22;8556;52.218;9.884;2023-09-07T10:48:08;27.80;99.90
16879;DHT22;8556;52.218;9.884;2023-09-07T10:50:42;28.00;99.90
16879;DHT22;8556;52.218;9.884;2023-09-07T10:53:11;28.40;99.90
16879;DHT22;8556;52.218;9.884;2023-09-07T10:55:38;28.20;99.90
16879;DHT22;8556;52.218;9.884;2023-09-07T10:58:05;27.80;99.90
16879;DHT22;8556;52.218;9.884;2023-09-07T11:00:32;28.20;99.90
16879;DHT22;8556;52.218;9.884;2023-09-07T11:03:08;29.10;99.90
16879;DHT22;8556;52.218;9.884;2023-09-07T11:05:37;29.10;99.90
16879;DHT22;8556;52.218;9.884;2023-09-07T11:08:06;28.20;99.90
16879;DHT22;8556;52.218;9.884;2023-09-07T11:10:34;28.20;99.90
16879;DHT22;8556;52.218;9.884;2023-09-07T11:13:05;28.30;99.90
16879;DHT22;8556;52.218;9.884;2023-09-07T11:15:32;28.10;99.90
16879;DHT22;8556;52.218;9.884;2023-09-07T11:18:04;28.30;99.90
16879;DHT22;8556;52.218;9.884;2023-09-07T11:20:34;28.50;99.90
16879;DHT22;8556;52.218;9.884;2023-09-07T11:23:01;28.30;99.90
16879;DHT22;8556;52.218;9.884;2023-09-07T11:25:34;28.30;99.90
16879;DHT22;8556;52.218;9.884;2023-09-07T11:28:02;28.70;99.90
16879;DHT22;8556;52.218;9.884;2023-09-07T11:30:29;28.70;99.90
16879;DHT22;8556;52.218;9.884;2023-09-07T11:33:01;28.30;99.90
16879;DHT22;8556;52.218;9.884;2023-09-07T11:35:28;28.90;99.90
16879;DHT22;8556;52.218;9.884;2023-09-07T11:37:56;28.40;99.90
16879;DHT22;8556;52.218;9.884;2023-09-07T11:40:23;28.70;99.90
16879;DHT22;8556;52.218;9.884;2023-09-07T11:42:50;28.70;99.90
16879;DHT22;8556;52.218;9.884;2023-09-07T11:45:16;28.80;99.90
16879;DHT22;8556;52.218;9.884;2023-09-07T11:47:44;28.50;99.90
16879;DHT22;8556;52.218;9.884;2023-09-07T11:50:11;28.50;99.90
16879;DHT22;8556;52.218;9.884;2023-09-07T11:52:38;28.60;99.90
16879;DHT22;8556;52.218;9.884;2023-09-07T11:55:07;28.40;99.90
16879;DHT22;8556;52.218;9.884;2023-09-07T11:57:35;28.60;99.90
16879;DHT22;8556;52.218;9.884;2023-09-07T12:00:03;28.90;99.90
16879;DHT22;8556;52.218;9.884;2023-09-07T12:02:31;28.90;99.90
16879;DHT22;8556;52.218;9.884;2023-09-07T12:04:58;28.70;99.90
16879;DHT22;8556;52.218;9.884;2023-09-07T12:07:26;28.60;94.70
16879;DHT22;8556;52.218;9.884;2023-09-07T12:09:53;28.60;99.90
16879;DHT22;8556;52.218;9.884;2023-09-07T12:12:23;28.70;91.00
16879;DHT22;8556;52.218;9.884;2023-09-07T12:14:50;28.90;94.40
16879;DHT22;8556;52.218;9.884;2023-09-07T12:17:16;28.60;83.50
16879;DHT22;8556;52.218;9.884;2023-09-07T12:19:45;28.60;84.20
16879;DHT22;8556;52.218;9.884;2023-09-07T12:22:12;28.60;83.70
16879;DHT22;8556;52.218;9.884;2023-09-07T12:24:39;28.80;84.60
16879;DHT22;8556;52.218;9.884;2023-09-07T12:27:05;28.80;74.70
16879;DHT22;8556;52.218;9.884;2023-09-07T12:29:34;29.10;93.20
16879;DHT22;8556;52.218;9.884;2023-09-07T12:32:00;28.80;79.50
16879;DHT22;8556;52.218;9.884;2023-09-07T12:34:27;28.80;68.50
16879;DHT22;8556;52.218;9.884;2023-09-07T12:36:54;29.00;90.40
16879;DHT22;8556;52.218;9.884;2023-09-07T12:39:21;29.30;87.20
16879;DHT22;8556;52.218;9.884;2023-09-07T12:41:48;29.50;52.40
16879;DHT22;8556;52.218;9.884;2023-09-07T12:44:15;29.00;49.60
16879;DHT22;8556;52.218;9.884;2023-09-07T12:46:44;29.10;70.70
16879;DHT22;8556;52.218;9.884;2023-09-07T12:49:11;29.10;47.90
16879;DHT22;8556;52.218;9.884;2023-09-07T12:51:40;28.80;37.30
16879;DHT22;8556;52.218;9.884;2023-09-07T12:54:07;28.80;47.50
16879;DHT22;8556;52.218;9.884;2023-09-07T12:56:34;28.80;60.40
16879;DHT22;8556;52.218;9.884;2023-09-07T12:59:01;29.10;49.10
16879;DHT22;8556;52.218;9.884;2023-09-07T13:01:29;29.10;34.30
16879;DHT22;8556;52.218;9.884;2023-09-07T13:03:57;29.20;34.20
16879;DHT22;8556;52.218;9.884;2023-09-07T13:06:24;28.90;31.20
16879;DHT22;8556;52.218;9.884;2023-09-07T13:08:51;29.40;57.30
16879;DHT22;8556;52.218;9.884;2023-09-07T13:11:18;28.90;14.90
16879;DHT22;8556;52.218;9.884;2023-09-07T13:13:45;29.00;32.30
16879;DHT22;8556;52.218;9.884;2023-09-07T13:16:12;29.00;28.30
16879;DHT22;8556;52.218;9.884;2023-09-07T13:18:38;29.10;29.60
16879;DHT22;8556;52.218;9.884;2023-09-07T13:21:07;28.90;28.00
16879;DHT22;8556;52.218;9.884;2023-09-07T13:23:34;29.20;32.00
16879;DHT22;8556;52.218;9.884;2023-09-07T13:26:01;29.10;30.60
16879;DHT22;8556;52.218;9.884;2023-09-07T13:28:28;29.30;21.80
16879;DHT22;8556;52.218;9.884;2023-09-07T13:30:54;29.20;31.20
16879;DHT22;8556;52.218;9.884;2023-09-07T13:33:21;29.40;31.30
16879;DHT22;8556;52.218;9.884;2023-09-07T13:35:48;29.60;10.10
16879;DHT22;8556;52.218;9.884;2023-09-07T13:38:16;29.30;1.70
16879;DHT22;8556;52.218;9.884;2023-09-07T13:40:43;29.20;1.00
16879;DHT22;8556;52.218;9.884;2023-09-07T13:43:10;29.10;1.00
16879;DHT22;8556;52.218;9.884;2023-09-07T13:45:37;29.30;2.90
16879;DHT22;8556;52.218;9.884;2023-09-07T13:48:04;29.00;1.00
16879;DHT22;8556;52.218;9.884;2023-09-07T13:50:31;29.00;1.00
16879;DHT22;8556;52.218;9.884;2023-09-07T13:52:58;29.40;1.00
16879;DHT22;8556;52.218;9.884;2023-09-07T13:55:26;29.10;1.00
16879;DHT22;8556;52.218;9.884;2023-09-07T13:57:53;29.00;1.00
16879;DHT22;8556;52.218;9.884;2023-09-07T14:00:20;28.80;1.00
16879;DHT22;8556;52.218;9.884;2023-09-07T14:02:47;28.80;1.00
16879;DHT22;8556;52.218;9.884;2023-09-07T14:05:14;29.50;1.00
16879;DHT22;8556;52.218;9.884;2023-09-07T14:07:40;29.30;1.00
16879;DHT22;8556;52.218;9.884;2023-09-07T14:10:07;29.10;1.00
16879;DHT22;8556;52.218;9.884;2023-09-07T14:12:36;29.20;1.00
16879;DHT22;8556;52.218;9.884;2023-09-07T14:15:03;29.00;1.00
16879;DHT22;8556;52.218;9.884;2023-09-07T14:17:29;29.40;1.00
16879;DHT22;8556;52.218;9.884;2023-09-07T14:19:56;29.00;1.00
16879;DHT22;8556;52.218;9.884;2023-09-07T14:22:23;28.90;1.00
16879;DHT22;8556;52.218;9.884;2023-09-07T14:24:50;29.00;1.00
16879;DHT22;8556;52.218;9.884;2023-09-07T14:27:17;28.80;1.00
16879;DHT22;8556;52.218;9.884;2023-09-07T14:29:45;28.70;1.00
16879;DHT22;8556;52.218;9.884;2023-09-07T14:32:11;29.10;1.00
16879;DHT22;8556;52.218;9.884;2023-09-07T14:34:38;28.90;1.00
16879;DHT22;8556;52.218;9.884;2023-09-07T14:37:05;29.10;1.00
16879;DHT22;8556;52.218;9.884;2023-09-07T14:39:32;28.90;1.00
16879;DHT22;8556;52.218;9.884;2023-09-07T14:42:00;28.80;1.00
16879;DHT22;8556;52.218;9.884;2023-09-07T14:44:27;28.70;1.00
16879;DHT22;8556;52.218;9.884;2023-09-07T14:46:56;28.80;1.00
16879;DHT22;8556;52.218;9.884;2023-09-07T14:49:22;28.80;1.00
16879;DHT22;8556;52.218;9.884;2023-09-07T14:51:49;28.80;1.00
16879;DHT22;8556;52.218;9.884;2023-09-07T14:54:16;28.70;1.00
16879;DHT22;8556;52.218;9.884;2023-09-07T14:56:43;28.60;1.00
16879;DHT22;8556;52.218;9.884;2023-09-07T14:59:10;28.70;1.00
16879;DHT22;8556;52.218;9.884;2023-09-07T15:01:37;28.60;1.00
16879;DHT22;8556;52.218;9.884;2023-09-07T15:04:06;28.60;1.00
16879;DHT22;8556;52.218;9.884;2023-09-07T15:06:33;28.50;1.00
16879;DHT22;8556;52.218;9.884;2023-09-07T15:09:00;28.50;1.00
16879;DHT22;8556;52.218;9.884;2023-09-07T15:11:27;28.60;1.00
16879;DHT22;8556;52.218;9.884;2023-09-07T15:13:53;28.70;1.00
16879;DHT22;8556;52.218;9.884;2023-09-07T15:16:21;28.50;1.00
16879;DHT22;8556;52.218;9.884;2023-09-07T15:18:46;28.60;1.00
16879;DHT22;8556;52.218;9.884;2023-09-07T15:21:15;28.50;1.00
16879;DHT22;8556;52.218;9.884;2023-09-07T15:23:41;28.50;1.00
16879;DHT22;8556;52.218;9.884;2023-09-07T15:26:08;28.40;1.00
16879;DHT22;8556;52.218;9.884;2023-09-07T15:28:37;28.40;1.00
16879;DHT22;8556;52.218;9.884;2023-09-07T15:31:05;28.30;1.00
16879;DHT22;8556;52.218;9.884;2023-09-07T15:33:32;28.40;1.00
16879;DHT22;8556;52.218;9.884;2023-09-07T15:35:58;28.30;1.00
16879;DHT22;8556;52.218;9.884;2023-09-07T15:38:27;28.20;1.00
16879;DHT22;8556;52.218;9.884;2023-09-07T15:40:55;28.20;1.00
16879;DHT22;8556;52.218;9.884;2023-09-07T15:43:22;28.30;1.00
16879;DHT22;8556;52.218;9.884;2023-09-07T15:45:48;28.20;1.00
16879;DHT22;8556;52.218;9.884;2023-09-07T15:48:15;28.50;1.00
16879;DHT22;8556;52.218;9.884;2023-09-07T15:50:42;28.20;1.00